MET'MAP v2.0
soon released !

Expected late october,
this new version will be
more efficient, smarter,
and hosted on a brand new
server x3 powerfull...
...and still free !


Not compatible ?
Try the mobile version !

LOG IN : | Subscribe | Disclaimer | Who is Orbifly ? |
ICAO code :

TAF - LFHP Le Puy Loudes - 12 Jul 2020 11:51 UTC
Data Sources :     NOAA   


- Airport Elevation : 2731 ft
- IATA code : LPY
- No reported NOTAMs.


LFHP - Le Puy Loudes

Latest METAR recorded : 2020/07/12 09:30 LFHP 120930Z AUTO 06007KT 030V100 CAVOK 19/06 Q1023
NO TAF


MET'MAP, your aeronautical weather chart ! - Copyright ORBIFLY December 2007

Programming & Development : Alexandra Zaïnal
Co-Developer : Marc-Olivier Méhu
Technical & hardware support : Manuel Goepfert
Concept & Financing : Baudouin d'Aumeries